This is the latest recevied weather packets stored in our database for station/object SAVIL. If no packets are shown the sender has not sent any weather packets the latest 10 day(s).
| Time | Temp. | Humidity | Pressure | Rain* | Wind** | Luminosity | Snow |
|---|---|---|---|---|---|---|---|
| 1777669616 | 10° C | 62% | 1011.6 hPa | 0 mm | - | - | - |
| 1777668416 | 9.44° C | 67% | 1011.8 hPa | 0 mm | - | - | - |
| 1777667216 | 8.89° C | 67% | 1011.8 hPa | 0 mm | - | - | - |
| 1777666016 | 9.44° C | 66% | 1012 hPa | 0 mm | - | - | - |
| 1777664816 | 10° C | 64% | 1012 hPa | 0 mm | - | - | - |
| 1777663616 | 11.11° C | 60% | 1011.9 hPa | 0 mm | - | - | - |
| 1777662416 | 13.33° C | 48% | 1011.8 hPa | 0 mm | - | - | - |
| 1777661216 | 13.89° C | 45% | 1011.7 hPa | 0 mm | - | - | - |
| 1777660016 | 14.44° C | 43% | 1011.7 hPa | 0 mm | - | - | - |
| 1777658816 | 15.56° C | 40% | 1011.5 hPa | 0 mm | - | - | - |
| 1777657616 | 15.56° C | 40% | 1011.5 hPa | 0 mm | - | - | - |
| 1777656416 | 16.11° C | 38% | 1011.5 hPa | 0 mm | - | - | - |
| 1777655216 | 16.67° C | 36% | 1011.5 hPa | 0 mm | - | - | - |
| 1777654015 | 16.67° C | 36% | 1011.6 hPa | 0 mm | - | - | - |
| 1777652815 | 16.67° C | 36% | 1011.8 hPa | 0 mm | - | - | - |
| 1777651615 | 16.67° C | 37% | 1012 hPa | 0 mm | - | - | - |
| 1777650415 | 16.67° C | 37% | 1012 hPa | 0 mm | - | - | - |
| 1777649215 | 17.22° C | 36% | 1012.2 hPa | 0 mm | - | - | - |
| 1777648015 | 16.67° C | 37% | 1012.4 hPa | 0 mm | - | - | - |
| 1777646815 | 17.22° C | 35% | 1012.5 hPa | 0 mm | - | - | - |
| 1777645615 | 17.22° C | 36% | 1012.7 hPa | 0 mm | - | - | - |
| 1777644415 | 17.22° C | 37% | 1012.8 hPa | 0 mm | - | - | - |
| 1777643215 | 17.78° C | 36% | 1013.1 hPa | 0 mm | - | - | - |
| 1777642015 | 17.22° C | 38% | 1013.2 hPa | 0 mm | - | - | - |
| 1777640814 | 17.78° C | 38% | 1013.4 hPa | 0 mm | - | - | - |
* Rain latest hour (hover to see other rain measurements)
** Current wind speed in m/s (hover to see current wind gust speed)